sensor_id;sensor_type;location;lat;lon;timestamp;pressure;altitude;pressure_sealevel;temperature;humidity
28267;BME280;15525;45.568;5.448;2023-05-24T00:00:27;98046.59;;;20.71;57.28
28267;BME280;15525;45.568;5.448;2023-05-24T00:02:53;98022.72;;;20.56;57.67
28267;BME280;15525;45.568;5.448;2023-05-24T00:05:18;98035.38;;;20.73;57.28
28267;BME280;15525;45.568;5.448;2023-05-24T00:07:44;98042.59;;;20.69;57.23
28267;BME280;15525;45.568;5.448;2023-05-24T00:10:09;98050.66;;;20.65;57.45
28267;BME280;15525;45.568;5.448;2023-05-24T00:12:35;98055.47;;;20.80;57.22
28267;BME280;15525;45.568;5.448;2023-05-24T00:15:00;98054.53;;;20.76;57.04
28267;BME280;15525;45.568;5.448;2023-05-24T00:17:26;98031.75;;;20.48;57.56
28267;BME280;15525;45.568;5.448;2023-05-24T00:19:54;98044.72;;;20.63;57.02
28267;BME280;15525;45.568;5.448;2023-05-24T00:22:20;98056.19;;;20.89;56.94
28267;BME280;15525;45.568;5.448;2023-05-24T00:24:46;98050.81;;;20.81;57.07
28267;BME280;15525;45.568;5.448;2023-05-24T00:27:13;98033.72;;;20.60;57.33
28267;BME280;15525;45.568;5.448;2023-05-24T00:29:38;98038.25;;;20.56;57.46
28267;BME280;15525;45.568;5.448;2023-05-24T00:32:04;98035.59;;;20.47;57.82
28267;BME280;15525;45.568;5.448;2023-05-24T00:34:29;98036.53;;;20.51;57.84
28267;BME280;15525;45.568;5.448;2023-05-24T00:36:55;98029.53;;;20.62;57.33
28267;BME280;15525;45.568;5.448;2023-05-24T00:39:22;98005.59;;;20.56;57.20
28267;BME280;15525;45.568;5.448;2023-05-24T00:41:47;98026.81;;;20.62;57.48
28267;BME280;15525;45.568;5.448;2023-05-24T00:44:13;98031.19;;;20.75;57.25
28267;BME280;15525;45.568;5.448;2023-05-24T00:46:38;98003.72;;;20.36;57.53
28267;BME280;15525;45.568;5.448;2023-05-24T00:49:04;98002.38;;;20.42;57.53
28267;BME280;15525;45.568;5.448;2023-05-24T00:51:29;97995.41;;;20.32;57.46
28267;BME280;15525;45.568;5.448;2023-05-24T00:53:56;98012.41;;;20.29;57.75
28267;BME280;15525;45.568;5.448;2023-05-24T00:56:22;98026.19;;;20.24;58.24
28267;BME280;15525;45.568;5.448;2023-05-24T00:58:50;97993.66;;;20.07;58.39
28267;BME280;15525;45.568;5.448;2023-05-24T01:01:18;97999.38;;;20.14;57.95
28267;BME280;15525;45.568;5.448;2023-05-24T01:03:44;98004.44;;;20.24;58.00
28267;BME280;15525;45.568;5.448;2023-05-24T01:06:12;98010.47;;;20.09;58.08
28267;BME280;15525;45.568;5.448;2023-05-24T01:14:05;98022.53;;;20.20;58.18
28267;BME280;15525;45.568;5.448;2023-05-24T01:17:05;98023.41;;;20.33;57.78
28267;BME280;15525;45.568;5.448;2023-05-24T01:19:57;98022.34;;;20.46;57.64
28267;BME280;15525;45.568;5.448;2023-05-24T01:28:07;98000.31;;;20.18;57.38
28267;BME280;15525;45.568;5.448;2023-05-24T01:30:33;98019.50;;;20.22;57.79
28267;BME280;15525;45.568;5.448;2023-05-24T01:33:00;98005.84;;;20.10;57.82
28267;BME280;15525;45.568;5.448;2023-05-24T01:35:26;97989.41;;;19.98;57.93
28267;BME280;15525;45.568;5.448;2023-05-24T01:37:52;98009.81;;;20.33;57.61
28267;BME280;15525;45.568;5.448;2023-05-24T01:40:17;97996.94;;;20.42;57.14
28267;BME280;15525;45.568;5.448;2023-05-24T01:43:01;97982.88;;;20.40;57.43
28267;BME280;15525;45.568;5.448;2023-05-24T01:45:40;98006.13;;;20.49;57.33
28267;BME280;15525;45.568;5.448;2023-05-24T01:51:17;98003.13;;;20.10;57.69
28267;BME280;15525;45.568;5.448;2023-05-24T01:53:47;98011.28;;;20.10;57.81
28267;BME280;15525;45.568;5.448;2023-05-24T01:56:16;98004.16;;;20.17;57.44
28267;BME280;15525;45.568;5.448;2023-05-24T01:58:43;98001.97;;;20.31;57.23
28267;BME280;15525;45.568;5.448;2023-05-24T02:01:10;97999.78;;;20.45;56.68
28267;BME280;15525;45.568;5.448;2023-05-24T02:03:37;98018.06;;;20.57;56.64
28267;BME280;15525;45.568;5.448;2023-05-24T02:06:03;97994.34;;;20.45;56.70
28267;BME280;15525;45.568;5.448;2023-05-24T02:08:29;97996.63;;;20.23;56.80
28267;BME280;15525;45.568;5.448;2023-05-24T02:10:54;98016.09;;;20.25;57.33
28267;BME280;15525;45.568;5.448;2023-05-24T02:13:20;98020.47;;;20.17;57.34
28267;BME280;15525;45.568;5.448;2023-05-24T02:15:45;98011.16;;;19.98;58.03
28267;BME280;15525;45.568;5.448;2023-05-24T02:18:12;98005.47;;;19.91;58.18
28267;BME280;15525;45.568;5.448;2023-05-24T02:20:38;98010.81;;;20.08;58.05
28267;BME280;15525;45.568;5.448;2023-05-24T02:23:04;98006.53;;;19.98;57.87
28267;BME280;15525;45.568;5.448;2023-05-24T02:25:30;98001.63;;;19.92;57.95
28267;BME280;15525;45.568;5.448;2023-05-24T02:27:57;98008.44;;;19.98;57.76
28267;BME280;15525;45.568;5.448;2023-05-24T02:30:23;97995.34;;;20.00;57.84
28267;BME280;15525;45.568;5.448;2023-05-24T02:32:48;97992.66;;;19.91;58.08
28267;BME280;15525;45.568;5.448;2023-05-24T02:35:13;98009.66;;;19.80;58.22
28267;BME280;15525;45.568;5.448;2023-05-24T02:37:39;97997.34;;;19.82;58.36
28267;BME280;15525;45.568;5.448;2023-05-24T02:40:05;97988.94;;;19.75;58.39
28267;BME280;15525;45.568;5.448;2023-05-24T02:42:31;97977.53;;;19.61;58.57
28267;BME280;15525;45.568;5.448;2023-05-24T02:44:56;97962.06;;;19.53;58.53
28267;BME280;15525;45.568;5.448;2023-05-24T02:47:22;97980.50;;;19.68;58.40
28267;BME280;15525;45.568;5.448;2023-05-24T02:49:47;97977.34;;;19.66;58.52
28267;BME280;15525;45.568;5.448;2023-05-24T02:52:12;97982.75;;;19.66;58.63
28267;BME280;15525;45.568;5.448;2023-05-24T02:54:38;97989.03;;;19.87;58.25
28267;BME280;15525;45.568;5.448;2023-05-24T02:57:04;97978.88;;;19.76;58.50
28267;BME280;15525;45.568;5.448;2023-05-24T02:59:31;97971.72;;;19.71;58.40
28267;BME280;15525;45.568;5.448;2023-05-24T03:01:57;97973.97;;;19.69;58.68
28267;BME280;15525;45.568;5.448;2023-05-24T03:04:23;97978.88;;;19.76;58.37
28267;BME280;15525;45.568;5.448;2023-05-24T03:06:48;97940.72;;;19.43;58.37
28267;BME280;15525;45.568;5.448;2023-05-24T03:09:14;97970.00;;;19.67;58.83
28267;BME280;15525;45.568;5.448;2023-05-24T03:11:41;97985.03;;;19.64;58.74
28267;BME280;15525;45.568;5.448;2023-05-24T03:14:07;97990.72;;;19.71;58.50
28267;BME280;15525;45.568;5.448;2023-05-24T03:16:34;97987.63;;;19.81;58.78
28267;BME280;15525;45.568;5.448;2023-05-24T03:18:59;97997.91;;;19.76;58.83
28267;BME280;15525;45.568;5.448;2023-05-24T03:21:25;97972.56;;;19.63;58.77
28267;BME280;15525;45.568;5.448;2023-05-24T03:23:51;97992.44;;;19.55;59.00
28267;BME280;15525;45.568;5.448;2023-05-24T03:26:17;97982.75;;;19.66;59.08
28267;BME280;15525;45.568;5.448;2023-05-24T03:28:46;97981.50;;;19.64;58.79
28267;BME280;15525;45.568;5.448;2023-05-24T03:31:12;97990.72;;;19.71;58.67
28267;BME280;15525;45.568;5.448;2023-05-24T03:33:37;97992.31;;;19.72;58.96
28267;BME280;15525;45.568;5.448;2023-05-24T03:36:04;97989.00;;;19.67;59.03
28267;BME280;15525;45.568;5.448;2023-05-24T03:38:29;97996.47;;;19.70;58.99
28267;BME280;15525;45.568;5.448;2023-05-24T03:40:57;97994.47;;;19.58;59.14
28267;BME280;15525;45.568;5.448;2023-05-24T03:43:22;97985.53;;;19.58;59.16
28267;BME280;15525;45.568;5.448;2023-05-24T03:45:47;97993.97;;;19.85;58.83
28267;BME280;15525;45.568;5.448;2023-05-24T03:48:13;97985.19;;;19.88;58.57
28267;BME280;15525;45.568;5.448;2023-05-24T03:50:38;98006.63;;;19.81;58.92
28267;BME280;15525;45.568;5.448;2023-05-24T03:53:04;98000.31;;;19.69;59.03
28267;BME280;15525;45.568;5.448;2023-05-24T03:55:29;97963.47;;;19.30;59.69
28267;BME280;15525;45.568;5.448;2023-05-24T03:57:55;97988.22;;;19.37;59.55
28267;BME280;15525;45.568;5.448;2023-05-24T04:00:20;98013.75;;;19.36;59.95
28267;BME280;15525;45.568;5.448;2023-05-24T04:02:46;97992.53;;;19.30;59.69
28267;BME280;15525;45.568;5.448;2023-05-24T04:05:12;98017.13;;;19.33;60.11
28267;BME280;15525;45.568;5.448;2023-05-24T04:07:38;98022.75;;;19.57;59.55
28267;BME280;15525;45.568;5.448;2023-05-24T04:10:07;98015.06;;;19.22;60.06
28267;BME280;15525;45.568;5.448;2023-05-24T04:12:33;98014.53;;;19.37;59.61
28267;BME280;15525;45.568;5.448;2023-05-24T04:14:59;98015.81;;;19.39;59.60
28267;BME280;15525;45.568;5.448;2023-05-24T04:17:25;98008.78;;;19.38;59.64
28267;BME280;15525;45.568;5.448;2023-05-24T04:19:52;98027.28;;;19.45;59.37
28267;BME280;15525;45.568;5.448;2023-05-24T04:22:17;98006.91;;;19.30;59.37
28267;BME280;15525;45.568;5.448;2023-05-24T04:24:46;98026.50;;;19.44;59.62
28267;BME280;15525;45.568;5.448;2023-05-24T04:27:11;98030.38;;;19.35;59.63
28267;BME280;15525;45.568;5.448;2023-05-24T04:29:38;98018.97;;;19.41;59.27
28267;BME280;15525;45.568;5.448;2023-05-24T04:32:05;98032.59;;;19.33;59.55
28267;BME280;15525;45.568;5.448;2023-05-24T04:34:31;98024.09;;;19.43;59.16
28267;BME280;15525;45.568;5.448;2023-05-24T04:37:00;98028.56;;;19.47;59.09
28267;BME280;15525;45.568;5.448;2023-05-24T04:39:26;98036.00;;;19.59;58.91
28267;BME280;15525;45.568;5.448;2023-05-24T04:41:52;98024.78;;;19.31;59.58
28267;BME280;15525;45.568;5.448;2023-05-24T04:44:19;98012.34;;;19.30;59.55
28267;BME280;15525;45.568;5.448;2023-05-24T04:46:44;98014.50;;;19.45;59.12
28267;BME280;15525;45.568;5.448;2023-05-24T04:49:10;98031.28;;;19.47;59.09
28267;BME280;15525;45.568;5.448;2023-05-24T04:51:35;98012.19;;;19.18;59.81
28267;BME280;15525;45.568;5.448;2023-05-24T04:54:04;98029.38;;;19.39;59.41
28267;BME280;15525;45.568;5.448;2023-05-24T04:56:33;98037.03;;;19.46;59.30
28267;BME280;15525;45.568;5.448;2023-05-24T04:58:59;98039.44;;;19.39;59.59
28267;BME280;15525;45.568;5.448;2023-05-24T05:01:24;98044.63;;;19.23;60.06
28267;BME280;15525;45.568;5.448;2023-05-24T05:03:50;98034.06;;;19.30;59.77
28267;BME280;15525;45.568;5.448;2023-05-24T05:06:15;98009.94;;;19.29;59.18
28267;BME280;15525;45.568;5.448;2023-05-24T05:08:41;98015.53;;;19.32;59.48
28267;BME280;15525;45.568;5.448;2023-05-24T05:11:06;98035.69;;;19.23;59.64
28267;BME280;15525;45.568;5.448;2023-05-24T05:13:32;98048.69;;;19.46;59.67
28267;BME280;15525;45.568;5.448;2023-05-24T05:15:57;98033.78;;;19.23;59.98
28267;BME280;15525;45.568;5.448;2023-05-24T05:18:23;98030.50;;;19.38;59.42
28267;BME280;15525;45.568;5.448;2023-05-24T05:20:48;98039.13;;;19.40;59.59
28267;BME280;15525;45.568;5.448;2023-05-24T05:23:13;98041.13;;;19.60;58.91
28267;BME280;15525;45.568;5.448;2023-05-24T05:25:39;98021.47;;;19.26;59.75
28267;BME280;15525;45.568;5.448;2023-05-24T05:28:04;98028.75;;;19.34;59.82
28267;BME280;15525;45.568;5.448;2023-05-24T05:30:30;98036.97;;;19.17;60.15
28267;BME280;15525;45.568;5.448;2023-05-24T05:32:55;98009.81;;;19.17;59.76
28267;BME280;15525;45.568;5.448;2023-05-24T05:35:21;98034.38;;;19.20;59.81
28267;BME280;15525;45.568;5.448;2023-05-24T05:37:46;98038.16;;;19.36;59.42
28267;BME280;15525;45.568;5.448;2023-05-24T05:40:11;98029.63;;;19.26;59.73
28267;BME280;15525;45.568;5.448;2023-05-24T05:42:37;98023.75;;;18.98;60.01
28267;BME280;15525;45.568;5.448;2023-05-24T05:45:02;98038.91;;;18.99;60.01
28267;BME280;15525;45.568;5.448;2023-05-24T05:47:28;98034.75;;;19.10;59.82
28267;BME280;15525;45.568;5.448;2023-05-24T05:49:53;98038.09;;;19.07;59.64
28267;BME280;15525;45.568;5.448;2023-05-24T05:52:18;98032.94;;;19.31;59.17
28267;BME280;15525;45.568;5.448;2023-05-24T05:54:44;98051.66;;;19.07;59.97
28267;BME280;15525;45.568;5.448;2023-05-24T05:57:10;98060.19;;;19.43;59.20
28267;BME280;15525;45.568;5.448;2023-05-24T05:59:36;98051.75;;;19.36;59.17
28267;BME280;15525;45.568;5.448;2023-05-24T06:02:03;98044.63;;;19.61;58.59
28267;BME280;15525;45.568;5.448;2023-05-24T06:04:29;98063.56;;;19.78;58.32
28267;BME280;15525;45.568;5.448;2023-05-24T06:06:55;98051.66;;;19.24;59.31
28267;BME280;15525;45.568;5.448;2023-05-24T06:09:21;98065.72;;;19.01;60.12
28267;BME280;15525;45.568;5.448;2023-05-24T06:11:46;98068.16;;;18.94;60.13
28267;BME280;15525;45.568;5.448;2023-05-24T06:14:13;98049.03;;;18.56;60.91
28267;BME280;15525;45.568;5.448;2023-05-24T06:16:43;98072.13;;;18.96;60.09
28267;BME280;15525;45.568;5.448;2023-05-24T06:19:11;98063.50;;;18.94;59.99
28267;BME280;15525;45.568;5.448;2023-05-24T06:21:36;98070.19;;;19.05;59.98
28267;BME280;15525;45.568;5.448;2023-05-24T06:24:02;98040.16;;;19.10;59.23
28267;BME280;15525;45.568;5.448;2023-05-24T06:26:28;98081.44;;;19.41;58.76
28267;BME280;15525;45.568;5.448;2023-05-24T06:28:54;98066.38;;;19.52;58.63
28267;BME280;15525;45.568;5.448;2023-05-24T06:31:20;98061.38;;;19.25;58.88
28267;BME280;15525;45.568;5.448;2023-05-24T06:33:45;98063.47;;;19.11;59.37
28267;BME280;15525;45.568;5.448;2023-05-24T06:36:10;98075.13;;;19.66;58.15
28267;BME280;15525;45.568;5.448;2023-05-24T06:38:36;98075.13;;;19.66;58.21
28267;BME280;15525;45.568;5.448;2023-05-24T06:41:02;98067.84;;;19.50;58.35
28267;BME280;15525;45.568;5.448;2023-05-24T06:43:27;98071.38;;;19.42;58.86
28267;BME280;15525;45.568;5.448;2023-05-24T06:45:53;98050.47;;;19.34;58.56
28267;BME280;15525;45.568;5.448;2023-05-24T06:48:18;98069.16;;;19.44;58.41
28267;BME280;15525;45.568;5.448;2023-05-24T06:50:44;98091.22;;;19.71;57.95
28267;BME280;15525;45.568;5.448;2023-05-24T06:53:10;98060.72;;;19.20;58.67
28267;BME280;15525;45.568;5.448;2023-05-24T06:55:35;98072.38;;;19.37;58.55
28267;BME280;15525;45.568;5.448;2023-05-24T06:58:01;98089.34;;;19.26;59.09
28267;BME280;15525;45.568;5.448;2023-05-24T07:00:27;98090.25;;;19.38;58.39
28267;BME280;15525;45.568;5.448;2023-05-24T07:02:52;98090.25;;;19.30;58.86
28267;BME280;15525;45.568;5.448;2023-05-24T07:05:18;98084.22;;;19.07;59.35
28267;BME280;15525;45.568;5.448;2023-05-24T07:07:44;98100.53;;;18.90;59.60
28267;BME280;15525;45.568;5.448;2023-05-24T07:10:10;98105.94;;;18.90;59.75
28267;BME280;15525;45.568;5.448;2023-05-24T07:12:37;98095.22;;;19.19;59.03
28267;BME280;15525;45.568;5.448;2023-05-24T07:15:05;98091.28;;;19.63;57.92
28267;BME280;15525;45.568;5.448;2023-05-24T07:17:31;98067.19;;;19.53;57.78
28267;BME280;15525;45.568;5.448;2023-05-24T07:19:58;98080.09;;;19.56;57.96
28267;BME280;15525;45.568;5.448;2023-05-24T07:22:23;98044.88;;;19.39;57.56
28267;BME280;15525;45.568;5.448;2023-05-24T07:24:49;98088.25;;;19.64;57.84
28267;BME280;15525;45.568;5.448;2023-05-24T07:27:15;98087.28;;;19.60;58.01
28267;BME280;15525;45.568;5.448;2023-05-24T07:29:41;98088.66;;;19.75;57.57
28267;BME280;15525;45.568;5.448;2023-05-24T07:32:06;98067.28;;;19.94;56.86
28267;BME280;15525;45.568;5.448;2023-05-24T07:34:32;98072.00;;;19.85;57.21
28267;BME280;15525;45.568;5.448;2023-05-24T07:37:00;98085.69;;;19.59;57.93
28267;BME280;15525;45.568;5.448;2023-05-24T07:39:26;98087.75;;;19.62;58.02
28267;BME280;15525;45.568;5.448;2023-05-24T07:41:52;98052.06;;;19.72;57.04
28267;BME280;15525;45.568;5.448;2023-05-24T07:44:18;98089.06;;;19.85;57.28
28267;BME280;15525;45.568;5.448;2023-05-24T07:46:44;98082.19;;;19.50;58.09
28267;BME280;15525;45.568;5.448;2023-05-24T07:49:10;98102.03;;;19.88;57.58
28267;BME280;15525;45.568;5.448;2023-05-24T07:51:35;98111.81;;;19.81;57.51
28267;BME280;15525;45.568;5.448;2023-05-24T07:54:01;98095.75;;;19.59;57.83
28267;BME280;15525;45.568;5.448;2023-05-24T07:56:26;98088.03;;;19.32;58.29
28267;BME280;15525;45.568;5.448;2023-05-24T07:58:52;98109.28;;;19.67;57.84
28267;BME280;15525;45.568;5.448;2023-05-24T08:01:20;98109.03;;;19.52;57.99
28267;BME280;15525;45.568;5.448;2023-05-24T08:03:46;98097.06;;;19.53;58.09
28267;BME280;15525;45.568;5.448;2023-05-24T08:06:12;98087.13;;;19.57;57.65
28267;BME280;15525;45.568;5.448;2023-05-24T08:08:38;98096.47;;;19.76;57.19
28267;BME280;15525;45.568;5.448;2023-05-24T08:11:05;98117.19;;;19.52;57.83
28267;BME280;15525;45.568;5.448;2023-05-24T08:13:32;98109.91;;;19.10;59.13
28267;BME280;15525;45.568;5.448;2023-05-24T08:15:58;98104.69;;;18.88;59.34
28267;BME280;15525;45.568;5.448;2023-05-24T08:18:23;98115.50;;;19.30;58.35
28267;BME280;15525;45.568;5.448;2023-05-24T08:20:49;98108.41;;;19.84;57.24
28267;BME280;15525;45.568;5.448;2023-05-24T08:23:14;98100.50;;;19.99;56.67
28267;BME280;15525;45.568;5.448;2023-05-24T08:25:40;98129.25;;;19.71;57.41
28267;BME280;15525;45.568;5.448;2023-05-24T08:28:05;98127.59;;;19.41;57.98
28267;BME280;15525;45.568;5.448;2023-05-24T08:30:31;98119.44;;;19.41;58.10
28267;BME280;15525;45.568;5.448;2023-05-24T08:32:56;98124.66;;;19.63;57.56
28267;BME280;15525;45.568;5.448;2023-05-24T08:35:22;98129.38;;;19.83;57.42
28267;BME280;15525;45.568;5.448;2023-05-24T08:37:48;98136.53;;;19.88;57.00
28267;BME280;15525;45.568;5.448;2023-05-24T08:40:14;98129.72;;;19.73;57.09
28267;BME280;15525;45.568;5.448;2023-05-24T08:42:40;98128.03;;;19.60;57.84
28267;BME280;15525;45.568;5.448;2023-05-24T08:45:13;98130.72;;;19.98;56.96
28267;BME280;15525;45.568;5.448;2023-05-24T08:47:39;98134.00;;;20.20;56.46
28267;BME280;15525;45.568;5.448;2023-05-24T08:50:06;98134.00;;;19.83;56.98
28267;BME280;15525;45.568;5.448;2023-05-24T08:52:32;98143.06;;;19.58;57.55
28267;BME280;15525;45.568;5.448;2023-05-24T08:54:59;98149.56;;;19.65;57.53
28267;BME280;15525;45.568;5.448;2023-05-24T08:57:27;98146.38;;;20.01;56.72
28267;BME280;15525;45.568;5.448;2023-05-24T08:59:54;98139.50;;;19.66;57.07
28267;BME280;15525;45.568;5.448;2023-05-24T09:02:20;98144.81;;;19.91;56.94
28267;BME280;15525;45.568;5.448;2023-05-24T09:04:48;98146.09;;;19.94;56.70
28267;BME280;15525;45.568;5.448;2023-05-24T09:07:17;98153.38;;;19.73;57.37
28267;BME280;15525;45.568;5.448;2023-05-24T09:09:47;98135.00;;;20.07;56.64
28267;BME280;15525;45.568;5.448;2023-05-24T09:12:16;98149.84;;;19.81;57.07
28267;BME280;15525;45.568;5.448;2023-05-24T09:14:45;98156.84;;;20.28;56.24
28267;BME280;15525;45.568;5.448;2023-05-24T09:17:11;98133.34;;;20.44;55.62
28267;BME280;15525;45.568;5.448;2023-05-24T09:19:43;98156.88;;;20.48;55.89
28267;BME280;15525;45.568;5.448;2023-05-24T09:22:08;98142.63;;;20.22;56.05
28267;BME280;15525;45.568;5.448;2023-05-24T09:24:42;98156.00;;;19.52;57.61
28267;BME280;15525;45.568;5.448;2023-05-24T09:27:07;98145.97;;;19.27;58.13
28267;BME280;15525;45.568;5.448;2023-05-24T09:29:36;98150.63;;;19.01;58.82
28267;BME280;15525;45.568;5.448;2023-05-24T09:32:02;98117.91;;;19.06;58.51
28267;BME280;15525;45.568;5.448;2023-05-24T09:34:41;98145.19;;;19.35;58.06
28267;BME280;15525;45.568;5.448;2023-05-24T09:37:10;98147.88;;;19.44;57.82
28267;BME280;15525;45.568;5.448;2023-05-24T09:39:39;98165.38;;;19.63;57.30
28267;BME280;15525;45.568;5.448;2023-05-24T09:42:06;98160.03;;;19.92;57.07
28267;BME280;15525;45.568;5.448;2023-05-24T09:44:32;98159.69;;;20.31;55.91
28267;BME280;15525;45.568;5.448;2023-05-24T09:47:02;98141.44;;;20.32;55.69
28267;BME280;15525;45.568;5.448;2023-05-24T09:49:31;98147.78;;;20.15;56.31
28267;BME280;15525;45.568;5.448;2023-05-24T09:51:57;98143.72;;;19.92;56.46
28267;BME280;15525;45.568;5.448;2023-05-24T09:54:23;98158.31;;;19.79;57.09
28267;BME280;15525;45.568;5.448;2023-05-24T09:56:51;98159.94;;;20.09;56.39
28267;BME280;15525;45.568;5.448;2023-05-24T09:59:17;98147.50;;;19.62;57.17
28267;BME280;15525;45.568;5.448;2023-05-24T10:01:43;98158.00;;;19.81;57.15
28267;BME280;15525;45.568;5.448;2023-05-24T10:04:09;98145.53;;;20.17;56.39
28267;BME280;15525;45.568;5.448;2023-05-24T10:06:35;98167.94;;;19.68;57.27
28267;BME280;15525;45.568;5.448;2023-05-24T10:09:04;98151.81;;;20.09;56.54
28267;BME280;15525;45.568;5.448;2023-05-24T10:11:34;98138.28;;;20.50;55.54
28267;BME280;15525;45.568;5.448;2023-05-24T10:14:03;98117.53;;;20.46;55.15
28267;BME280;15525;45.568;5.448;2023-05-24T10:16:29;98150.38;;;20.82;54.83
28267;BME280;15525;45.568;5.448;2023-05-24T10:18:54;98153.34;;;20.68;55.21
28267;BME280;15525;45.568;5.448;2023-05-24T10:21:22;98147.16;;;20.39;55.39
28267;BME280;15525;45.568;5.448;2023-05-24T10:23:51;98165.50;;;20.21;56.17
28267;BME280;15525;45.568;5.448;2023-05-24T10:26:23;98148.59;;;20.65;55.30
28267;BME280;15525;45.568;5.448;2023-05-24T10:28:54;98153.31;;;20.98;54.38
28267;BME280;15525;45.568;5.448;2023-05-24T10:31:24;98135.44;;;21.09;53.92
28267;BME280;15525;45.568;5.448;2023-05-24T10:33:55;98144.03;;;20.99;54.86
28267;BME280;15525;45.568;5.448;2023-05-24T10:36:22;98158.50;;;21.44;54.13
28267;BME280;15525;45.568;5.448;2023-05-24T10:38:51;98146.88;;;21.79;53.18
28267;BME280;15525;45.568;5.448;2023-05-24T10:41:17;98130.25;;;21.60;53.23
28267;BME280;15525;45.568;5.448;2023-05-24T10:43:45;98133.03;;;21.84;52.60
28267;BME280;15525;45.568;5.448;2023-05-24T10:46:13;98134.06;;;22.04;52.48
28267;BME280;15525;45.568;5.448;2023-05-24T10:48:41;98076.34;;;21.78;52.17
28267;BME280;15525;45.568;5.448;2023-05-24T10:51:32;98140.50;;;22.71;51.09
28267;BME280;15525;45.568;5.448;2023-05-24T10:54:13;98130.97;;;22.93;50.40
28267;BME280;15525;45.568;5.448;2023-05-24T10:56:40;98135.75;;;22.44;51.70
28267;BME280;15525;45.568;5.448;2023-05-24T10:59:07;98146.06;;;22.75;51.23
28267;BME280;15525;45.568;5.448;2023-05-24T11:01:33;98139.31;;;23.12;50.63
28267;BME280;15525;45.568;5.448;2023-05-24T11:04:09;98138.03;;;22.42;51.48
28267;BME280;15525;45.568;5.448;2023-05-24T11:09:34;98133.84;;;22.96;50.51
28267;BME280;15525;45.568;5.448;2023-05-24T11:12:06;98125.94;;;23.34;49.79
28267;BME280;15525;45.568;5.448;2023-05-24T11:14:35;98120.56;;;23.10;50.15
28267;BME280;15525;45.568;5.448;2023-05-24T11:17:01;98110.72;;;22.94;50.13
28267;BME280;15525;45.568;5.448;2023-05-24T11:19:33;98130.72;;;22.98;49.78
28267;BME280;15525;45.568;5.448;2023-05-24T11:22:01;98116.69;;;22.84;50.27
28267;BME280;15525;45.568;5.448;2023-05-24T11:24:28;98121.78;;;23.25;49.55
28267;BME280;15525;45.568;5.448;2023-05-24T11:26:54;98110.16;;;23.16;49.76
28267;BME280;15525;45.568;5.448;2023-05-24T11:29:21;98105.25;;;23.80;48.35
28267;BME280;15525;45.568;5.448;2023-05-24T11:32:07;98107.41;;;24.36;47.46
28267;BME280;15525;45.568;5.448;2023-05-24T11:34:33;98095.75;;;25.12;46.23
28267;BME280;15525;45.568;5.448;2023-05-24T11:37:00;98096.28;;;24.45;47.11
28267;BME280;15525;45.568;5.448;2023-05-24T11:39:33;98109.47;;;24.58;46.50
28267;BME280;15525;45.568;5.448;2023-05-24T11:42:00;98102.75;;;24.37;47.34
28267;BME280;15525;45.568;5.448;2023-05-24T11:44:30;98101.97;;;24.21;47.83
28267;BME280;15525;45.568;5.448;2023-05-24T11:46:59;98093.97;;;24.62;47.12
28267;BME280;15525;45.568;5.448;2023-05-24T11:49:26;98092.06;;;25.23;46.17
28267;BME280;15525;45.568;5.448;2023-05-24T11:51:53;98092.50;;;24.68;46.91
28267;BME280;15525;45.568;5.448;2023-05-24T11:54:20;98073.44;;;24.91;46.92
28267;BME280;15525;45.568;5.448;2023-05-24T11:56:46;98084.22;;;24.84;47.09
28267;BME280;15525;45.568;5.448;2023-05-24T11:59:19;98082.78;;;24.90;46.85
28267;BME280;15525;45.568;5.448;2023-05-24T12:01:46;98070.25;;;24.89;46.91
28267;BME280;15525;45.568;5.448;2023-05-24T12:04:12;98069.22;;;24.59;47.22
28267;BME280;15525;45.568;5.448;2023-05-24T12:06:42;98086.78;;;24.23;47.75
28267;BME280;15525;45.568;5.448;2023-05-24T12:09:09;98073.66;;;23.82;48.70
28267;BME280;15525;45.568;5.448;2023-05-24T12:11:38;98060.28;;;23.93;48.39
28267;BME280;15525;45.568;5.448;2023-05-24T12:14:06;98060.97;;;24.40;47.83
28267;BME280;15525;45.568;5.448;2023-05-24T12:16:31;98062.19;;;24.96;46.93
28267;BME280;15525;45.568;5.448;2023-05-24T12:18:58;98043.16;;;25.25;46.17
28267;BME280;15525;45.568;5.448;2023-05-24T12:21:24;98041.03;;;24.96;46.64
28267;BME280;15525;45.568;5.448;2023-05-24T12:23:49;98041.22;;;24.31;47.93
28267;BME280;15525;45.568;5.448;2023-05-24T12:26:17;98046.22;;;25.01;47.05
28267;BME280;15525;45.568;5.448;2023-05-24T12:28:44;98044.13;;;25.14;46.92
28267;BME280;15525;45.568;5.448;2023-05-24T12:31:09;98031.03;;;24.85;46.83
28267;BME280;15525;45.568;5.448;2023-05-24T12:33:35;98035.22;;;24.79;47.01
28267;BME280;15525;45.568;5.448;2023-05-24T12:36:01;98002.91;;;24.65;46.97
28267;BME280;15525;45.568;5.448;2023-05-24T12:38:27;98039.09;;;24.97;46.72
28267;BME280;15525;45.568;5.448;2023-05-24T12:40:53;98041.97;;;25.04;46.70
28267;BME280;15525;45.568;5.448;2023-05-24T12:43:19;98015.22;;;25.39;46.07
28267;BME280;15525;45.568;5.448;2023-05-24T12:45:45;98031.16;;;25.11;46.86
28267;BME280;15525;45.568;5.448;2023-05-24T12:48:11;98013.53;;;25.31;46.13
28267;BME280;15525;45.568;5.448;2023-05-24T12:50:36;98016.72;;;25.14;46.25
28267;BME280;15525;45.568;5.448;2023-05-24T12:53:02;98020.03;;;24.62;47.33
28267;BME280;15525;45.568;5.448;2023-05-24T12:55:28;97998.53;;;24.64;47.02
28267;BME280;15525;45.568;5.448;2023-05-24T12:57:55;98024.06;;;25.29;46.49
28267;BME280;15525;45.568;5.448;2023-05-24T13:00:22;97995.41;;;25.49;46.00
28267;BME280;15525;45.568;5.448;2023-05-24T13:02:49;98009.66;;;25.80;45.85
28267;BME280;15525;45.568;5.448;2023-05-24T13:05:17;98013.34;;;26.17;45.26
28267;BME280;15525;45.568;5.448;2023-05-24T13:07:43;98002.38;;;26.17;45.00
28267;BME280;15525;45.568;5.448;2023-05-24T13:10:09;97998.63;;;26.29;44.83
28267;BME280;15525;45.568;5.448;2023-05-24T13:12:35;97971.69;;;26.08;44.81
28267;BME280;15525;45.568;5.448;2023-05-24T13:15:01;97980.75;;;26.75;43.92